createdAt,value
2023-04-08T00:00:49.981Z,10.20
2023-04-08T00:03:16.519Z,10.23
2023-04-08T00:05:42.953Z,10.23
2023-04-08T00:08:09.343Z,10.20
2023-04-08T00:10:36.695Z,10.22
2023-04-08T00:13:03.091Z,10.24
2023-04-08T00:15:29.423Z,10.22
2023-04-08T00:17:56.052Z,10.20
2023-04-08T00:20:23.947Z,10.16
2023-04-08T00:22:50.568Z,10.23
2023-04-08T00:25:17.119Z,10.25
2023-04-08T00:27:43.505Z,10.21
2023-04-08T00:30:10.423Z,10.19
2023-04-08T00:32:36.873Z,10.21
2023-04-08T00:35:03.602Z,10.19
2023-04-08T00:37:31.315Z,10.20
2023-04-08T00:39:57.678Z,10.15
2023-04-08T00:42:24.130Z,10.18
2023-04-08T00:44:50.519Z,10.13
2023-04-08T00:47:16.975Z,10.12
2023-04-08T00:49:43.987Z,10.11
2023-04-08T00:52:10.541Z,10.16
2023-04-08T00:54:37.583Z,10.21
2023-04-08T00:57:05.572Z,10.22
2023-04-08T00:59:33.279Z,10.16
2023-04-08T01:02:06.719Z,10.19
2023-04-08T01:04:44.233Z,10.27
2023-04-08T01:07:31.425Z,10.24
2023-04-08T01:10:03.934Z,10.22
2023-04-08T01:12:33.083Z,10.25
2023-04-08T01:15:05.452Z,10.24
2023-04-08T01:17:33.323Z,10.20
2023-04-08T01:20:01.843Z,10.19
2023-04-08T01:23:03.799Z,10.24
2023-04-08T01:25:35.320Z,10.19
2023-04-08T01:28:05.693Z,10.20
2023-04-08T01:30:33.564Z,10.21
2023-04-08T01:33:02.525Z,10.16
2023-04-08T01:35:30.677Z,10.16
2023-04-08T01:37:58.102Z,10.13
2023-04-08T01:40:24.701Z,10.07
2023-04-08T01:42:54.523Z,10.11
2023-04-08T01:45:22.479Z,10.06
2023-04-08T01:47:49.959Z,10.04
2023-04-08T01:50:17.106Z,10.06
2023-04-08T01:52:45.062Z,10.03
2023-04-08T01:55:11.685Z,10.03
2023-04-08T01:57:40.765Z,10.09
2023-04-08T02:00:13.485Z,10.09
2023-04-08T02:02:44.101Z,10.04
2023-04-08T02:05:10.646Z,10.03
2023-04-08T02:07:37.064Z,10.07
2023-04-08T02:10:04.218Z,10.05
2023-04-08T02:12:31.423Z,10.05
2023-04-08T02:14:57.927Z,10.05
2023-04-08T02:17:50.824Z,10.07
2023-04-08T02:20:31.559Z,10.02
2023-04-08T02:23:07.618Z,9.98
2023-04-08T02:25:37.768Z,10.01
2023-04-08T02:28:06.781Z,10.02
2023-04-08T02:30:35.722Z,10.00
2023-04-08T02:33:04.822Z,9.98
2023-04-08T02:35:32.349Z,9.98
2023-04-08T02:37:58.860Z,9.92
2023-04-08T02:40:30.964Z,9.96
2023-04-08T02:42:58.351Z,9.99
2023-04-08T02:45:32.148Z,10.01
2023-04-08T02:48:02.196Z,10.01
2023-04-08T02:50:28.732Z,10.01
2023-04-08T02:52:55.626Z,9.95
2023-04-08T02:55:22.047Z,9.95
2023-04-08T02:57:49.125Z,9.95
2023-04-08T03:00:16.018Z,9.90
2023-04-08T03:02:42.588Z,9.90
2023-04-08T03:05:09.742Z,9.93
2023-04-08T03:07:36.307Z,9.86
2023-04-08T03:10:03.377Z,9.86
2023-04-08T03:12:29.789Z,9.87
2023-04-08T03:14:56.235Z,9.86
2023-04-08T03:17:22.668Z,9.83
2023-04-08T03:19:49.147Z,9.86
2023-04-08T03:22:15.593Z,9.83
2023-04-08T03:24:42.119Z,9.80
2023-04-08T03:27:08.562Z,9.73
2023-04-08T03:29:35.301Z,9.79
2023-04-08T03:32:02.212Z,9.81
2023-04-08T03:34:28.599Z,9.80
2023-04-08T03:36:55.240Z,9.82
2023-04-08T03:39:21.840Z,9.79
2023-04-08T03:41:48.146Z,9.80
2023-04-08T03:44:14.502Z,9.75
2023-04-08T03:46:40.993Z,9.81
2023-04-08T03:49:07.428Z,9.82
2023-04-08T03:51:33.942Z,9.82
2023-04-08T03:54:00.421Z,9.80
2023-04-08T03:56:26.863Z,9.83
2023-04-08T03:58:53.344Z,9.82
2023-04-08T04:01:19.795Z,9.75
2023-04-08T04:03:46.587Z,9.77
2023-04-08T04:06:13.078Z,9.83
2023-04-08T04:08:39.573Z,9.85
2023-04-08T04:11:06.041Z,9.87
2023-04-08T04:13:32.430Z,9.86
2023-04-08T04:15:58.856Z,9.81
2023-04-08T04:18:25.337Z,9.79
2023-04-08T04:20:51.757Z,9.79
2023-04-08T04:23:18.145Z,9.81
2023-04-08T04:25:44.498Z,9.80
2023-04-08T04:28:10.882Z,9.82
2023-04-08T04:30:38.737Z,9.81
2023-04-08T04:33:05.894Z,9.75
2023-04-08T04:35:32.807Z,9.67
2023-04-08T04:37:59.596Z,9.74
2023-04-08T04:40:26.183Z,9.72
2023-04-08T04:42:52.567Z,9.71
2023-04-08T04:45:18.912Z,9.68
2023-04-08T04:47:45.475Z,9.69
2023-04-08T04:50:11.840Z,9.68
2023-04-08T04:52:38.187Z,9.66
2023-04-08T04:55:04.923Z,9.67
2023-04-08T04:57:31.479Z,9.71
2023-04-08T04:59:58.778Z,9.74
2023-04-08T05:02:25.380Z,9.69
2023-04-08T05:04:53.701Z,9.61
2023-04-08T05:07:20.172Z,9.63
2023-04-08T05:09:46.734Z,9.57
2023-04-08T05:12:13.153Z,9.53
2023-04-08T05:14:39.625Z,9.44
2023-04-08T05:17:06.432Z,9.25
2023-04-08T05:19:32.838Z,9.20
2023-04-08T05:21:59.166Z,9.13
2023-04-08T05:24:25.562Z,9.22
2023-04-08T05:26:53.351Z,9.25
2023-04-08T05:29:21.680Z,9.32
2023-04-08T05:31:48.190Z,9.36
2023-04-08T05:34:15.678Z,9.40
2023-04-08T05:36:42.352Z,9.25
2023-04-08T05:39:08.731Z,9.20
2023-04-08T05:41:35.059Z,9.29
2023-04-08T05:44:01.466Z,9.37
2023-04-08T05:46:27.883Z,9.45
2023-04-08T05:48:54.386Z,9.42
2023-04-08T05:51:20.814Z,9.21
2023-04-08T05:53:47.211Z,9.14
2023-04-08T05:56:13.726Z,9.16
2023-04-08T05:58:40.314Z,9.17
2023-04-08T06:01:07.273Z,9.24
2023-04-08T06:03:33.762Z,9.31
2023-04-08T06:06:00.679Z,9.27
2023-04-08T06:08:27.014Z,9.28
2023-04-08T06:10:53.345Z,9.28
2023-04-08T06:13:21.099Z,9.22
2023-04-08T06:15:49.928Z,9.20
2023-04-08T06:18:17.221Z,9.15
2023-04-08T06:20:43.716Z,9.16
2023-04-08T06:23:10.087Z,9.17
2023-04-08T06:25:36.422Z,9.26
2023-04-08T06:28:02.821Z,9.32
2023-04-08T06:30:29.327Z,9.45
2023-04-08T06:32:55.732Z,9.32
2023-04-08T06:35:22.309Z,9.33
2023-04-08T06:37:48.679Z,9.45
2023-04-08T06:40:15.361Z,9.50
2023-04-08T06:42:43.152Z,9.48
2023-04-08T06:45:10.662Z,9.47
2023-04-08T06:47:37.045Z,9.43
2023-04-08T06:50:03.596Z,9.37
2023-04-08T06:52:29.915Z,9.46
2023-04-08T06:54:56.289Z,9.47
2023-04-08T06:57:22.668Z,9.45
2023-04-08T06:59:49.315Z,9.42
2023-04-08T07:02:15.906Z,9.48
2023-04-08T07:04:43.110Z,9.45
2023-04-08T07:07:10.440Z,9.46
2023-04-08T07:09:37.074Z,9.42
2023-04-08T07:12:04.900Z,9.41
2023-04-08T07:14:31.537Z,9.58
2023-04-08T07:16:57.982Z,9.50
2023-04-08T07:19:25.409Z,9.54
2023-04-08T07:21:52.749Z,9.67
2023-04-08T07:24:19.157Z,9.75
2023-04-08T07:26:45.542Z,9.91
2023-04-08T07:29:12.118Z,10.03
2023-04-08T07:31:38.486Z,9.95
2023-04-08T07:34:04.937Z,9.83
2023-04-08T07:36:31.827Z,9.83
2023-04-08T07:38:58.182Z,9.63
2023-04-08T07:41:24.674Z,9.77
2023-04-08T07:43:51.248Z,9.97
2023-04-08T07:46:17.685Z,9.97
2023-04-08T07:48:44.157Z,10.03
2023-04-08T07:51:11.609Z,9.98
2023-04-08T07:53:40.342Z,10.03
2023-04-08T07:56:14.650Z,10.16
2023-04-08T07:58:41.500Z,10.15
2023-04-08T08:01:16.444Z,10.24
2023-04-08T08:03:43.029Z,10.13
2023-04-08T08:06:11.698Z,10.07
2023-04-08T08:08:38.093Z,10.14
2023-04-08T08:11:04.559Z,10.12
2023-04-08T08:13:31.113Z,10.16
2023-04-08T08:15:57.662Z,10.30
2023-04-08T08:18:24.311Z,10.39
2023-04-08T08:20:50.793Z,10.44
2023-04-08T08:23:17.218Z,10.54
2023-04-08T08:25:43.726Z,10.52
2023-04-08T08:28:10.266Z,10.52
2023-04-08T08:30:38.366Z,10.53
2023-04-08T08:33:06.070Z,10.38
2023-04-08T08:35:32.529Z,10.42
2023-04-08T08:37:58.933Z,10.49
2023-04-08T08:40:25.387Z,10.47
2023-04-08T08:42:52.663Z,10.54
2023-04-08T08:45:22.258Z,10.43
2023-04-08T08:47:50.957Z,10.31
2023-04-08T08:50:18.455Z,10.31
2023-04-08T08:52:49.698Z,10.34
2023-04-08T08:55:35.081Z,10.46
2023-04-08T08:58:03.192Z,10.44
2023-04-08T09:00:37.501Z,10.50
2023-04-08T09:03:17.583Z,10.53
2023-04-08T09:06:03.867Z,10.48
2023-04-08T09:08:37.059Z,10.27
2023-04-08T09:11:13.828Z,10.29
2023-04-08T09:13:40.746Z,10.39
2023-04-08T09:16:11.781Z,10.41
2023-04-08T09:18:39.048Z,10.43
2023-04-08T09:21:07.154Z,10.35
2023-04-08T09:23:46.951Z,10.46
2023-04-08T09:26:24.558Z,10.67
2023-04-08T09:29:00.255Z,10.70
2023-04-08T09:31:34.565Z,10.79
2023-04-08T09:34:09.188Z,10.82
2023-04-08T09:36:35.944Z,10.80
2023-04-08T09:39:02.335Z,11.00
2023-04-08T09:41:29.004Z,11.17
2023-04-08T09:43:56.494Z,11.41
2023-04-08T09:46:33.717Z,11.65
2023-04-08T09:49:12.574Z,11.88
2023-04-08T09:52:09.820Z,11.87
2023-04-08T09:54:52.725Z,11.69
2023-04-08T09:57:28.908Z,11.81
2023-04-08T10:00:11.050Z,11.99
2023-04-08T10:03:03.055Z,11.91
2023-04-08T10:05:31.085Z,11.78
2023-04-08T10:08:00.477Z,11.89
2023-04-08T10:10:27.348Z,11.86
2023-04-08T10:12:54.152Z,12.01
2023-04-08T10:15:27.898Z,12.09
2023-04-08T10:17:56.351Z,12.17
2023-04-08T10:20:34.908Z,12.22
2023-04-08T10:23:05.292Z,12.29
2023-04-08T10:25:42.083Z,12.40
2023-04-08T10:28:11.669Z,12.37
2023-04-08T10:30:38.160Z,12.29
2023-04-08T10:33:11.638Z,12.36
2023-04-08T10:35:42.390Z,12.43
2023-04-08T10:38:09.490Z,12.47
2023-04-08T10:40:41.456Z,12.54
2023-04-08T10:43:09.032Z,12.43
2023-04-08T10:45:36.142Z,12.46
2023-04-08T10:48:13.429Z,12.47
2023-04-08T10:50:40.930Z,12.47
2023-04-08T10:53:08.469Z,12.54
2023-04-08T10:55:35.288Z,12.61
2023-04-08T10:58:09.710Z,12.58
2023-04-08T11:00:38.393Z,12.62
2023-04-08T11:03:07.102Z,12.66
2023-04-08T11:05:34.358Z,12.63
2023-04-08T11:08:01.394Z,12.66
2023-04-08T11:10:29.017Z,12.65
2023-04-08T11:12:56.300Z,12.66
2023-04-08T11:15:24.537Z,12.64
2023-04-08T11:17:51.527Z,12.55
2023-04-08T11:20:18.055Z,12.50
2023-04-08T11:22:45.507Z,12.60
2023-04-08T11:25:12.006Z,12.57
2023-04-08T11:27:39.573Z,12.54
2023-04-08T11:30:08.101Z,12.60
2023-04-08T11:32:36.925Z,12.60
2023-04-08T11:35:06.219Z,12.67
2023-04-08T11:37:40.978Z,12.76
2023-04-08T11:40:09.316Z,12.72
2023-04-08T11:42:35.959Z,12.66
2023-04-08T11:45:10.376Z,12.69
2023-04-08T11:47:37.501Z,12.58
2023-04-08T11:50:04.227Z,12.39
2023-04-08T11:52:51.156Z,12.53
2023-04-08T11:55:31.944Z,12.57
2023-04-08T11:58:03.735Z,12.53
2023-04-08T12:00:31.203Z,12.67
2023-04-08T12:02:57.797Z,12.78
2023-04-08T12:05:24.384Z,12.67
2023-04-08T12:07:50.822Z,12.67
2023-04-08T12:10:17.140Z,12.60
2023-04-08T12:12:43.640Z,12.63
2023-04-08T12:15:10.807Z,12.54
2023-04-08T12:17:38.768Z,12.45
2023-04-08T12:20:08.466Z,12.51
2023-04-08T12:22:34.909Z,12.62
2023-04-08T12:25:03.367Z,12.73
2023-04-08T12:27:30.582Z,12.92
2023-04-08T12:29:57.644Z,12.77
2023-04-08T12:32:25.326Z,12.72
2023-04-08T12:34:52.392Z,12.46
2023-04-08T12:37:20.807Z,12.32
2023-04-08T12:39:47.847Z,12.22
2023-04-08T12:42:14.742Z,12.31
2023-04-08T12:44:41.233Z,12.33
2023-04-08T12:47:07.785Z,12.41
2023-04-08T12:49:42.862Z,12.53
2023-04-08T12:52:15.677Z,12.78
2023-04-08T12:54:42.360Z,12.96
2023-04-08T12:57:08.797Z,13.04
2023-04-08T12:59:35.984Z,13.09
2023-04-08T13:02:02.404Z,13.19
2023-04-08T13:04:28.894Z,13.24
2023-04-08T13:06:56.343Z,13.29
2023-04-08T13:09:22.956Z,13.36
2023-04-08T13:11:49.480Z,13.37
2023-04-08T13:14:16.473Z,13.36
2023-04-08T13:16:43.103Z,13.37
2023-04-08T13:19:09.659Z,13.46
2023-04-08T13:21:36.333Z,13.49
2023-04-08T13:24:02.753Z,13.46
2023-04-08T13:26:29.144Z,13.50
2023-04-08T13:28:57.873Z,13.44
2023-04-08T13:31:25.294Z,13.15
2023-04-08T13:33:51.713Z,13.14
2023-04-08T13:36:18.104Z,12.77
2023-04-08T13:38:45.742Z,12.79
2023-04-08T13:41:12.225Z,13.02
2023-04-08T13:43:38.575Z,13.04
2023-04-08T13:46:05.163Z,12.75
2023-04-08T13:48:31.556Z,12.85
2023-04-08T13:50:57.906Z,12.93
2023-04-08T13:53:24.219Z,13.13
2023-04-08T13:55:54.956Z,13.15
2023-04-08T13:58:24.260Z,13.27
2023-04-08T14:00:51.720Z,13.36
2023-04-08T14:03:19.071Z,13.50
2023-04-08T14:05:45.787Z,13.81
2023-04-08T14:08:13.614Z,14.04
2023-04-08T14:10:41.854Z,14.09
2023-04-08T14:13:08.558Z,14.12
2023-04-08T14:15:34.976Z,13.82
2023-04-08T14:18:01.581Z,13.94
2023-04-08T14:20:28.129Z,14.21
2023-04-08T14:22:56.750Z,14.91
2023-04-08T14:25:23.595Z,15.64
2023-04-08T14:27:57.911Z,15.70
2023-04-08T14:30:26.658Z,15.58
2023-04-08T14:32:53.580Z,15.79
2023-04-08T14:35:20.194Z,15.71
2023-04-08T14:37:46.902Z,15.64
2023-04-08T14:40:13.435Z,15.36
2023-04-08T14:42:39.782Z,15.43
2023-04-08T14:45:06.938Z,15.39
2023-04-08T14:47:33.448Z,15.43
2023-04-08T14:49:59.817Z,15.47
2023-04-08T14:52:26.223Z,15.62
2023-04-08T14:54:53.693Z,15.55
2023-04-08T14:57:20.236Z,15.58
2023-04-08T14:59:46.715Z,15.45
2023-04-08T15:02:13.151Z,15.43
2023-04-08T15:04:39.701Z,15.56
2023-04-08T15:07:06.346Z,15.51
2023-04-08T15:09:32.883Z,15.49
2023-04-08T15:11:59.934Z,15.23
2023-04-08T15:14:26.706Z,14.91
2023-04-08T15:16:53.076Z,14.79
2023-04-08T15:19:20.305Z,14.68
2023-04-08T15:21:47.270Z,14.59
2023-04-08T15:24:13.957Z,14.36
2023-04-08T15:26:41.073Z,14.12
2023-04-08T15:29:07.740Z,13.89
2023-04-08T15:31:35.010Z,13.80
2023-04-08T15:34:02.852Z,13.76
2023-04-08T15:36:30.342Z,13.89
2023-04-08T15:38:56.959Z,13.95
2023-04-08T15:41:23.398Z,13.97
2023-04-08T15:43:50.153Z,13.91
2023-04-08T15:46:21.219Z,13.93
2023-04-08T15:48:48.529Z,13.91
2023-04-08T15:51:15.394Z,13.84
2023-04-08T15:53:42.398Z,13.85
2023-04-08T15:56:14.022Z,13.77
2023-04-08T15:58:40.689Z,13.64
2023-04-08T16:01:07.156Z,13.60
2023-04-08T16:03:33.950Z,13.63
2023-04-08T16:06:00.462Z,13.53
2023-04-08T16:08:27.181Z,13.51
2023-04-08T16:11:04.172Z,13.27
2023-04-08T16:13:30.879Z,13.08
2023-04-08T16:15:58.446Z,13.09
2023-04-08T16:18:25.738Z,13.02
2023-04-08T16:20:52.169Z,13.18
2023-04-08T16:23:18.554Z,13.04
2023-04-08T16:25:45.957Z,12.95
2023-04-08T16:28:12.504Z,12.88
2023-04-08T16:30:39.059Z,13.00
2023-04-08T16:33:05.961Z,13.05
2023-04-08T16:35:32.638Z,12.97
2023-04-08T16:37:59.383Z,12.84
2023-04-08T16:40:26.214Z,12.84
2023-04-08T16:42:52.947Z,12.88
2023-04-08T16:45:19.432Z,12.83
2023-04-08T16:47:46.118Z,12.86
2023-04-08T16:50:12.658Z,12.84
2023-04-08T16:52:39.138Z,12.71
2023-04-08T16:55:05.880Z,12.72
2023-04-08T16:57:32.240Z,12.66
2023-04-08T16:59:58.620Z,12.70
2023-04-08T17:02:26.132Z,12.57
2023-04-08T17:04:52.597Z,12.58
2023-04-08T17:07:18.926Z,12.65
2023-04-08T17:09:49.495Z,12.56
2023-04-08T17:12:16.283Z,12.53
2023-04-08T17:14:42.689Z,12.53
2023-04-08T17:17:09.112Z,12.55
2023-04-08T17:19:35.475Z,12.55
2023-04-08T17:22:02.210Z,12.52
2023-04-08T17:24:28.599Z,12.55
2023-04-08T17:26:57.570Z,12.56
2023-04-08T17:29:24.509Z,12.41
2023-04-08T17:31:51.211Z,12.42
2023-04-08T17:34:18.103Z,12.19
2023-04-08T17:36:44.730Z,12.08
2023-04-08T17:39:11.117Z,12.06
2023-04-08T17:41:40.095Z,11.94
2023-04-08T17:44:07.688Z,11.88
2023-04-08T17:46:34.177Z,11.81
2023-04-08T17:49:01.414Z,11.94
2023-04-08T17:51:28.759Z,11.95
2023-04-08T17:53:55.100Z,11.80
2023-04-08T17:56:21.835Z,11.80
2023-04-08T17:58:48.271Z,11.64
2023-04-08T18:01:15.606Z,11.57
2023-04-08T18:03:42.454Z,11.49
2023-04-08T18:06:09.055Z,11.44
2023-04-08T18:08:35.777Z,11.43
2023-04-08T18:11:06.137Z,11.40
2023-04-08T18:13:33.062Z,11.36
2023-04-08T18:15:59.569Z,11.19
2023-04-08T18:18:26.069Z,11.19
2023-04-08T18:20:52.398Z,10.99
2023-04-08T18:23:18.790Z,10.96
2023-04-08T18:25:48.542Z,11.00
2023-04-08T18:28:14.881Z,10.85
2023-04-08T18:30:43.098Z,10.90
2023-04-08T18:33:09.471Z,10.77
2023-04-08T18:35:35.869Z,10.73
2023-04-08T18:38:02.265Z,10.69
2023-04-08T18:40:29.611Z,10.69
2023-04-08T18:42:56.056Z,10.65
2023-04-08T18:45:22.475Z,10.54
2023-04-08T18:47:48.937Z,10.52
2023-04-08T18:50:15.295Z,10.51
2023-04-08T18:52:41.811Z,10.54
2023-04-08T18:55:08.407Z,10.45
2023-04-08T18:57:34.965Z,10.51
2023-04-08T19:00:01.308Z,10.49
2023-04-08T19:02:27.704Z,10.46
2023-04-08T19:04:55.858Z,10.35
2023-04-08T19:07:23.157Z,10.36
2023-04-08T19:09:49.572Z,10.37
2023-04-08T19:12:16.136Z,10.40
2023-04-08T19:14:42.472Z,10.40
2023-04-08T19:17:09.723Z,10.44
2023-04-08T19:19:36.198Z,10.44
2023-04-08T19:22:05.501Z,10.51
2023-04-08T19:24:32.807Z,10.53
2023-04-08T19:26:59.325Z,10.54
2023-04-08T19:29:28.555Z,10.51
2023-04-08T19:31:56.839Z,10.45
2023-04-08T19:34:23.166Z,10.48
2023-04-08T19:36:49.538Z,10.41
2023-04-08T19:39:15.846Z,10.37
2023-04-08T19:41:42.214Z,10.45
2023-04-08T19:44:08.559Z,10.38
2023-04-08T19:46:35.014Z,10.33
2023-04-08T19:49:01.534Z,10.35
2023-04-08T19:51:29.096Z,10.32
2023-04-08T19:53:56.063Z,10.34
2023-04-08T19:56:22.395Z,10.29
2023-04-08T19:58:48.845Z,10.24
2023-04-08T20:01:15.606Z,10.19
2023-04-08T20:03:42.213Z,10.17
2023-04-08T20:06:08.922Z,10.20
2023-04-08T20:08:35.502Z,10.22
2023-04-08T20:11:04.522Z,10.18
2023-04-08T20:13:31.089Z,10.17
2023-04-08T20:15:57.972Z,10.15
2023-04-08T20:18:24.380Z,10.05
2023-04-08T20:20:51.056Z,10.00
2023-04-08T20:23:17.441Z,10.01
2023-04-08T20:25:43.856Z,10.01
2023-04-08T20:28:10.449Z,9.98
2023-04-08T20:30:37.670Z,9.98
2023-04-08T20:33:04.389Z,10.04
2023-04-08T20:35:30.933Z,10.06
2023-04-08T20:37:57.307Z,10.05
2023-04-08T20:40:23.700Z,10.06
2023-04-08T20:42:50.161Z,10.06
2023-04-08T20:45:16.504Z,9.99
2023-04-08T20:47:45.917Z,9.99
2023-04-08T20:50:12.609Z,10.00
2023-04-08T20:52:39.460Z,10.01
2023-04-08T20:55:07.327Z,10.03
2023-04-08T20:57:33.894Z,10.01
2023-04-08T21:00:00.503Z,10.05
2023-04-08T21:02:27.168Z,10.06
2023-04-08T21:04:53.653Z,10.03
2023-04-08T21:07:20.254Z,10.01
2023-04-08T21:09:48.484Z,9.97
2023-04-08T21:12:14.891Z,9.96
2023-04-08T21:14:42.020Z,9.98
2023-04-08T21:17:08.410Z,9.97
2023-04-08T21:19:34.927Z,9.94
2023-04-08T21:22:01.282Z,9.95
2023-04-08T21:24:28.329Z,9.89
2023-04-08T21:26:54.718Z,9.89
2023-04-08T21:29:21.099Z,9.85
2023-04-08T21:31:47.511Z,9.92
2023-04-08T21:34:14.434Z,9.93
2023-04-08T21:36:40.760Z,9.89
2023-04-08T21:39:07.195Z,9.89
2023-04-08T21:41:33.545Z,9.91
2023-04-08T21:43:59.903Z,9.85
2023-04-08T21:46:26.523Z,9.82
2023-04-08T21:48:53.239Z,9.86
2023-04-08T21:51:19.880Z,9.93
2023-04-08T21:53:46.227Z,9.91
2023-04-08T21:56:13.835Z,9.96
2023-04-08T21:58:40.188Z,9.98
2023-04-08T22:01:06.665Z,10.00
2023-04-08T22:03:33.251Z,10.05
2023-04-08T22:05:59.728Z,9.98
2023-04-08T22:08:26.101Z,9.95
2023-04-08T22:10:53.022Z,9.97
2023-04-08T22:13:20.496Z,9.86
2023-04-08T22:15:46.889Z,9.91
2023-04-08T22:18:13.251Z,9.93
2023-04-08T22:20:39.723Z,9.98
2023-04-08T22:23:06.166Z,9.87
2023-04-08T22:25:32.539Z,9.86
2023-04-08T22:27:59.048Z,9.91
2023-04-08T22:30:25.503Z,10.00
2023-04-08T22:32:51.900Z,9.81
2023-04-08T22:35:18.406Z,9.65
2023-04-08T22:37:44.768Z,9.70
2023-04-08T22:40:11.431Z,9.69
2023-04-08T22:42:37.899Z,9.82
2023-04-08T22:45:05.695Z,9.90
2023-04-08T22:47:32.124Z,9.79
2023-04-08T22:49:58.811Z,9.79
2023-04-08T22:52:25.186Z,9.85
2023-04-08T22:54:51.538Z,9.89
2023-04-08T22:57:17.895Z,9.90
2023-04-08T22:59:44.261Z,9.89
2023-04-08T23:02:10.702Z,9.87
2023-04-08T23:04:37.089Z,9.75
2023-04-08T23:07:03.460Z,9.73
2023-04-08T23:09:29.841Z,9.71
2023-04-08T23:11:56.277Z,9.75
2023-04-08T23:14:22.722Z,9.74
2023-04-08T23:16:49.131Z,9.76
2023-04-08T23:19:15.825Z,9.72
2023-04-08T23:21:42.887Z,9.67
2023-04-08T23:24:09.291Z,9.64
2023-04-08T23:26:36.415Z,9.61
2023-04-08T23:29:02.738Z,9.52
2023-04-08T23:31:29.201Z,9.50
2023-04-08T23:33:55.581Z,9.42
2023-04-08T23:36:21.964Z,9.29
2023-04-08T23:38:49.871Z,9.24
2023-04-08T23:41:16.370Z,9.12
2023-04-08T23:43:42.698Z,9.10
2023-04-08T23:46:09.251Z,9.08
2023-04-08T23:48:35.716Z,9.00
2023-04-08T23:51:02.193Z,8.91
2023-04-08T23:53:28.565Z,8.93
2023-04-08T23:55:54.942Z,8.88
2023-04-08T23:58:21.524Z,8.91
